sensor_id;sensor_type;location;lat;lon;timestamp;temperature;humidity
44069;DHT22;29738;51.234;5.484;2023-02-27T00:00:31;-0.30;99.90
44069;DHT22;29738;51.234;5.484;2023-02-27T00:02:57;-0.40;99.90
44069;DHT22;29738;51.234;5.484;2023-02-27T00:05:23;-0.40;99.90
44069;DHT22;29738;51.234;5.484;2023-02-27T00:07:49;-0.40;99.90
44069;DHT22;29738;51.234;5.484;2023-02-27T00:10:16;-0.40;99.90
44069;DHT22;29738;51.234;5.484;2023-02-27T00:12:42;-0.40;99.90
44069;DHT22;29738;51.234;5.484;2023-02-27T00:15:14;-0.40;99.90
44069;DHT22;29738;51.234;5.484;2023-02-27T00:17:40;-0.40;99.90
44069;DHT22;29738;51.234;5.484;2023-02-27T00:20:09;-0.40;99.90
44069;DHT22;29738;51.234;5.484;2023-02-27T00:22:42;-0.40;99.90
44069;DHT22;29738;51.234;5.484;2023-02-27T00:25:08;-0.50;99.90
44069;DHT22;29738;51.234;5.484;2023-02-27T00:27:35;-0.60;99.90
44069;DHT22;29738;51.234;5.484;2023-02-27T00:30:03;-0.60;99.90
44069;DHT22;29738;51.234;5.484;2023-02-27T00:32:29;-0.60;99.90
44069;DHT22;29738;51.234;5.484;2023-02-27T00:34:55;-0.60;99.90
44069;DHT22;29738;51.234;5.484;2023-02-27T00:37:21;-0.80;99.90
44069;DHT22;29738;51.234;5.484;2023-02-27T00:39:47;-0.70;99.90
44069;DHT22;29738;51.234;5.484;2023-02-27T00:42:13;-0.70;99.90
44069;DHT22;29738;51.234;5.484;2023-02-27T00:44:39;-0.70;99.90
44069;DHT22;29738;51.234;5.484;2023-02-27T00:47:05;-0.70;99.90
44069;DHT22;29738;51.234;5.484;2023-02-27T00:49:31;-0.70;99.90
44069;DHT22;29738;51.234;5.484;2023-02-27T00:51:57;-0.80;99.90
44069;DHT22;29738;51.234;5.484;2023-02-27T00:54:23;-0.60;99.90
44069;DHT22;29738;51.234;5.484;2023-02-27T00:56:49;-0.70;99.90
44069;DHT22;29738;51.234;5.484;2023-02-27T00:59:14;-0.80;99.90
44069;DHT22;29738;51.234;5.484;2023-02-27T01:01:40;-1.00;99.90
44069;DHT22;29738;51.234;5.484;2023-02-27T01:04:06;-0.80;99.90
44069;DHT22;29738;51.234;5.484;2023-02-27T01:06:32;-0.90;99.90
44069;DHT22;29738;51.234;5.484;2023-02-27T01:08:57;-0.90;99.90
44069;DHT22;29738;51.234;5.484;2023-02-27T01:11:23;-1.00;99.90
44069;DHT22;29738;51.234;5.484;2023-02-27T01:13:49;-0.90;99.90
44069;DHT22;29738;51.234;5.484;2023-02-27T01:16:15;-0.80;99.90
44069;DHT22;29738;51.234;5.484;2023-02-27T01:18:41;-1.00;99.90
44069;DHT22;29738;51.234;5.484;2023-02-27T01:21:07;-0.90;99.90
44069;DHT22;29738;51.234;5.484;2023-02-27T01:23:33;-1.00;99.90
44069;DHT22;29738;51.234;5.484;2023-02-27T01:25:59;-1.00;99.90
44069;DHT22;29738;51.234;5.484;2023-02-27T01:28:24;-1.20;99.90
44069;DHT22;29738;51.234;5.484;2023-02-27T01:30:50;-1.10;99.90
44069;DHT22;29738;51.234;5.484;2023-02-27T01:33:16;-1.10;99.90
44069;DHT22;29738;51.234;5.484;2023-02-27T01:35:42;-1.20;99.90
44069;DHT22;29738;51.234;5.484;2023-02-27T01:38:08;-1.20;99.90
44069;DHT22;29738;51.234;5.484;2023-02-27T01:40:38;-1.20;99.90
44069;DHT22;29738;51.234;5.484;2023-02-27T01:43:05;-1.20;99.90
44069;DHT22;29738;51.234;5.484;2023-02-27T01:45:39;-1.30;99.90
44069;DHT22;29738;51.234;5.484;2023-02-27T01:50:35;-1.40;99.90
44069;DHT22;29738;51.234;5.484;2023-02-27T01:53:02;-1.50;99.90
44069;DHT22;29738;51.234;5.484;2023-02-27T01:55:32;-1.30;99.90
44069;DHT22;29738;51.234;5.484;2023-02-27T01:57:59;-1.50;99.90
44069;DHT22;29738;51.234;5.484;2023-02-27T02:00:25;-1.50;99.90
44069;DHT22;29738;51.234;5.484;2023-02-27T02:05:37;-1.50;99.90
44069;DHT22;29738;51.234;5.484;2023-02-27T02:08:04;-1.50;99.90
44069;DHT22;29738;51.234;5.484;2023-02-27T02:10:32;-1.50;99.90
44069;DHT22;29738;51.234;5.484;2023-02-27T02:12:58;-1.50;99.90
44069;DHT22;29738;51.234;5.484;2023-02-27T02:15:30;-1.60;99.90
44069;DHT22;29738;51.234;5.484;2023-02-27T02:18:08;-1.60;99.90
44069;DHT22;29738;51.234;5.484;2023-02-27T02:26:32;-1.70;99.90
44069;DHT22;29738;51.234;5.484;2023-02-27T02:40:52;-1.80;99.90
44069;DHT22;29738;51.234;5.484;2023-02-27T02:49:08;-1.80;99.90
44069;DHT22;29738;51.234;5.484;2023-02-27T02:57:30;-1.90;99.90
44069;DHT22;29738;51.234;5.484;2023-02-27T03:00:07;-1.90;99.90
44069;DHT22;29738;51.234;5.484;2023-02-27T03:02:41;-1.90;99.90
44069;DHT22;29738;51.234;5.484;2023-02-27T03:05:31;-2.00;99.90
44069;DHT22;29738;51.234;5.484;2023-02-27T03:08:07;-2.00;99.90
44069;DHT22;29738;51.234;5.484;2023-02-27T03:10:42;-2.00;99.90
44069;DHT22;29738;51.234;5.484;2023-02-27T03:13:20;-2.00;99.90
44069;DHT22;29738;51.234;5.484;2023-02-27T03:16:00;-2.00;99.90
44069;DHT22;29738;51.234;5.484;2023-02-27T03:18:33;-2.00;99.90
44069;DHT22;29738;51.234;5.484;2023-02-27T03:21:06;-2.00;99.90
44069;DHT22;29738;51.234;5.484;2023-02-27T03:23:41;-1.90;99.90
44069;DHT22;29738;51.234;5.484;2023-02-27T03:26:09;-1.90;99.90
44069;DHT22;29738;51.234;5.484;2023-02-27T03:28:40;-1.90;99.90
44069;DHT22;29738;51.234;5.484;2023-02-27T03:31:13;-1.90;99.90
44069;DHT22;29738;51.234;5.484;2023-02-27T03:33:52;-1.90;99.90
44069;DHT22;29738;51.234;5.484;2023-02-27T03:36:59;-1.90;99.90
44069;DHT22;29738;51.234;5.484;2023-02-27T03:42:29;-1.90;99.90
44069;DHT22;29738;51.234;5.484;2023-02-27T03:47:54;-2.00;99.90
44069;DHT22;29738;51.234;5.484;2023-02-27T03:50:21;-1.90;99.90
44069;DHT22;29738;51.234;5.484;2023-02-27T03:52:46;-2.00;99.90
44069;DHT22;29738;51.234;5.484;2023-02-27T03:55:17;-1.90;99.90
44069;DHT22;29738;51.234;5.484;2023-02-27T03:57:46;-1.90;99.90
44069;DHT22;29738;51.234;5.484;2023-02-27T04:00:15;-1.80;99.90
44069;DHT22;29738;51.234;5.484;2023-02-27T04:02:43;-1.90;99.90
44069;DHT22;29738;51.234;5.484;2023-02-27T04:05:10;-1.80;99.90
44069;DHT22;29738;51.234;5.484;2023-02-27T04:11:09;-1.90;99.90
44069;DHT22;29738;51.234;5.484;2023-02-27T04:13:58;-1.90;99.90
44069;DHT22;29738;51.234;5.484;2023-02-27T04:24:34;-2.00;99.90
44069;DHT22;29738;51.234;5.484;2023-02-27T04:27:03;-2.00;99.90
44069;DHT22;29738;51.234;5.484;2023-02-27T04:29:52;-2.00;99.90
44069;DHT22;29738;51.234;5.484;2023-02-27T04:35:16;-2.10;99.90
44069;DHT22;29738;51.234;5.484;2023-02-27T04:40:33;-2.20;99.90
44069;DHT22;29738;51.234;5.484;2023-02-27T04:43:02;-2.20;99.90
44069;DHT22;29738;51.234;5.484;2023-02-27T04:45:32;-2.20;99.90
44069;DHT22;29738;51.234;5.484;2023-02-27T04:48:06;-2.10;99.90
44069;DHT22;29738;51.234;5.484;2023-02-27T04:50:41;-2.20;99.90
44069;DHT22;29738;51.234;5.484;2023-02-27T04:53:21;-2.30;99.90
44069;DHT22;29738;51.234;5.484;2023-02-27T04:55:52;-2.40;99.90
44069;DHT22;29738;51.234;5.484;2023-02-27T04:59:07;-2.40;99.90
44069;DHT22;29738;51.234;5.484;2023-02-27T05:01:12;-2.40;99.90
44069;DHT22;29738;51.234;5.484;2023-02-27T05:03:44;-2.50;99.90
44069;DHT22;29738;51.234;5.484;2023-02-27T05:06:14;-2.40;99.90
44069;DHT22;29738;51.234;5.484;2023-02-27T05:11:33;-2.40;99.90
44069;DHT22;29738;51.234;5.484;2023-02-27T05:14:22;-2.50;99.90
44069;DHT22;29738;51.234;5.484;2023-02-27T05:16:55;-2.40;99.90
44069;DHT22;29738;51.234;5.484;2023-02-27T05:19:25;-2.40;99.90
44069;DHT22;29738;51.234;5.484;2023-02-27T05:27:38;-2.30;99.90
44069;DHT22;29738;51.234;5.484;2023-02-27T05:33:05;-2.30;99.90
44069;DHT22;29738;51.234;5.484;2023-02-27T05:38:36;-2.50;99.90
44069;DHT22;29738;51.234;5.484;2023-02-27T05:41:13;-2.40;99.90
44069;DHT22;29738;51.234;5.484;2023-02-27T05:43:49;-2.50;99.90
44069;DHT22;29738;51.234;5.484;2023-02-27T05:46:22;-2.50;99.90
44069;DHT22;29738;51.234;5.484;2023-02-27T05:48:55;-2.30;99.90
44069;DHT22;29738;51.234;5.484;2023-02-27T05:51:27;-2.50;99.90
44069;DHT22;29738;51.234;5.484;2023-02-27T05:54:02;-2.50;99.90
44069;DHT22;29738;51.234;5.484;2023-02-27T05:56:29;-2.50;99.90
44069;DHT22;29738;51.234;5.484;2023-02-27T05:59:21;-2.50;99.90
44069;DHT22;29738;51.234;5.484;2023-02-27T06:01:48;-2.50;99.90
44069;DHT22;29738;51.234;5.484;2023-02-27T06:04:14;-2.50;99.90
44069;DHT22;29738;51.234;5.484;2023-02-27T06:06:40;-2.50;99.90
44069;DHT22;29738;51.234;5.484;2023-02-27T06:09:07;-2.50;99.90
44069;DHT22;29738;51.234;5.484;2023-02-27T06:11:33;-2.50;99.90
44069;DHT22;29738;51.234;5.484;2023-02-27T06:13:59;-2.50;99.90
44069;DHT22;29738;51.234;5.484;2023-02-27T06:16:24;-2.60;99.90
44069;DHT22;29738;51.234;5.484;2023-02-27T06:18:50;-2.50;99.90
44069;DHT22;29738;51.234;5.484;2023-02-27T06:21:16;-2.50;99.90
44069;DHT22;29738;51.234;5.484;2023-02-27T06:23:42;-2.60;99.90
44069;DHT22;29738;51.234;5.484;2023-02-27T06:26:08;-2.60;99.90
44069;DHT22;29738;51.234;5.484;2023-02-27T06:28:38;-2.70;99.90
44069;DHT22;29738;51.234;5.484;2023-02-27T06:31:04;-2.60;99.90
44069;DHT22;29738;51.234;5.484;2023-02-27T06:33:29;-2.60;99.90
44069;DHT22;29738;51.234;5.484;2023-02-27T06:35:55;-2.60;99.90
44069;DHT22;29738;51.234;5.484;2023-02-27T06:38:21;-2.50;99.90
44069;DHT22;29738;51.234;5.484;2023-02-27T06:40:47;-2.60;99.90
44069;DHT22;29738;51.234;5.484;2023-02-27T06:43:13;-2.70;99.90
44069;DHT22;29738;51.234;5.484;2023-02-27T06:45:39;-2.40;99.90
44069;DHT22;29738;51.234;5.484;2023-02-27T06:48:05;-2.20;99.90
44069;DHT22;29738;51.234;5.484;2023-02-27T06:50:31;-2.40;99.90
44069;DHT22;29738;51.234;5.484;2023-02-27T06:52:57;-2.40;99.90
44069;DHT22;29738;51.234;5.484;2023-02-27T06:55:22;-2.50;99.90
44069;DHT22;29738;51.234;5.484;2023-02-27T06:57:50;-2.40;99.90
44069;DHT22;29738;51.234;5.484;2023-02-27T07:00:16;-2.30;99.90
44069;DHT22;29738;51.234;5.484;2023-02-27T07:02:42;-2.30;99.90
44069;DHT22;29738;51.234;5.484;2023-02-27T07:05:09;-2.30;99.90
44069;DHT22;29738;51.234;5.484;2023-02-27T07:07:38;-2.20;99.90
44069;DHT22;29738;51.234;5.484;2023-02-27T07:10:05;-2.20;99.90
44069;DHT22;29738;51.234;5.484;2023-02-27T07:12:31;-2.10;99.90
44069;DHT22;29738;51.234;5.484;2023-02-27T07:14:57;-2.10;99.90
44069;DHT22;29738;51.234;5.484;2023-02-27T07:17:23;-2.00;99.90
44069;DHT22;29738;51.234;5.484;2023-02-27T07:19:49;-1.90;99.90
44069;DHT22;29738;51.234;5.484;2023-02-27T07:22:15;-1.90;99.90
44069;DHT22;29738;51.234;5.484;2023-02-27T07:24:40;-2.00;99.90
44069;DHT22;29738;51.234;5.484;2023-02-27T07:27:06;-1.80;99.90
44069;DHT22;29738;51.234;5.484;2023-02-27T07:29:32;-1.70;99.90
44069;DHT22;29738;51.234;5.484;2023-02-27T07:32:00;-1.60;99.90
44069;DHT22;29738;51.234;5.484;2023-02-27T07:34:26;-1.60;99.90
44069;DHT22;29738;51.234;5.484;2023-02-27T07:36:51;-1.40;99.90
44069;DHT22;29738;51.234;5.484;2023-02-27T07:39:17;-1.40;99.90
44069;DHT22;29738;51.234;5.484;2023-02-27T07:41:43;-1.20;99.90
44069;DHT22;29738;51.234;5.484;2023-02-27T07:44:10;-1.40;99.90
44069;DHT22;29738;51.234;5.484;2023-02-27T07:46:36;-1.20;99.90
44069;DHT22;29738;51.234;5.484;2023-02-27T07:49:02;-1.10;99.90
44069;DHT22;29738;51.234;5.484;2023-02-27T07:51:28;-1.10;99.90
44069;DHT22;29738;51.234;5.484;2023-02-27T07:53:56;-1.00;99.90
44069;DHT22;29738;51.234;5.484;2023-02-27T07:56:23;-0.90;99.90
44069;DHT22;29738;51.234;5.484;2023-02-27T07:58:49;-0.90;99.90
44069;DHT22;29738;51.234;5.484;2023-02-27T08:01:14;-0.80;99.90
44069;DHT22;29738;51.234;5.484;2023-02-27T08:03:40;-0.80;99.90
44069;DHT22;29738;51.234;5.484;2023-02-27T08:06:06;-0.70;99.90
44069;DHT22;29738;51.234;5.484;2023-02-27T08:08:32;-0.60;99.90
44069;DHT22;29738;51.234;5.484;2023-02-27T08:10:58;-0.50;99.90
44069;DHT22;29738;51.234;5.484;2023-02-27T08:13:24;-0.40;99.90
44069;DHT22;29738;51.234;5.484;2023-02-27T08:15:49;-0.60;99.90
44069;DHT22;29738;51.234;5.484;2023-02-27T08:18:15;-0.40;99.90
44069;DHT22;29738;51.234;5.484;2023-02-27T08:20:41;-0.30;99.90
44069;DHT22;29738;51.234;5.484;2023-02-27T08:23:07;-0.30;99.90
44069;DHT22;29738;51.234;5.484;2023-02-27T08:25:34;-0.30;99.90
44069;DHT22;29738;51.234;5.484;2023-02-27T08:27:59;-0.20;99.90
44069;DHT22;29738;51.234;5.484;2023-02-27T08:30:25;-0.20;99.90
44069;DHT22;29738;51.234;5.484;2023-02-27T08:32:51;-0.10;99.90
44069;DHT22;29738;51.234;5.484;2023-02-27T08:35:17;0.00;99.90
44069;DHT22;29738;51.234;5.484;2023-02-27T08:37:43;0.10;99.90
44069;DHT22;29738;51.234;5.484;2023-02-27T08:40:09;0.20;99.90
44069;DHT22;29738;51.234;5.484;2023-02-27T08:42:36;0.30;99.90
44069;DHT22;29738;51.234;5.484;2023-02-27T08:45:02;0.40;99.90
44069;DHT22;29738;51.234;5.484;2023-02-27T08:47:28;0.60;99.90
44069;DHT22;29738;51.234;5.484;2023-02-27T08:49:54;0.50;99.90
44069;DHT22;29738;51.234;5.484;2023-02-27T08:52:21;0.60;99.90
44069;DHT22;29738;51.234;5.484;2023-02-27T08:54:47;0.50;99.90
44069;DHT22;29738;51.234;5.484;2023-02-27T08:57:13;0.70;99.90
44069;DHT22;29738;51.234;5.484;2023-02-27T08:59:39;0.70;99.90
44069;DHT22;29738;51.234;5.484;2023-02-27T09:02:05;0.90;99.90
44069;DHT22;29738;51.234;5.484;2023-02-27T09:04:30;0.90;99.90
44069;DHT22;29738;51.234;5.484;2023-02-27T09:06:56;0.90;99.90
44069;DHT22;29738;51.234;5.484;2023-02-27T09:09:22;1.10;99.90
44069;DHT22;29738;51.234;5.484;2023-02-27T09:11:49;1.00;99.90
44069;DHT22;29738;51.234;5.484;2023-02-27T09:14:15;1.20;99.90
44069;DHT22;29738;51.234;5.484;2023-02-27T09:16:41;1.40;99.90
44069;DHT22;29738;51.234;5.484;2023-02-27T09:19:07;1.40;99.90
44069;DHT22;29738;51.234;5.484;2023-02-27T09:21:33;1.40;99.90
44069;DHT22;29738;51.234;5.484;2023-02-27T09:23:58;1.50;99.90
44069;DHT22;29738;51.234;5.484;2023-02-27T09:26:25;1.60;99.90
44069;DHT22;29738;51.234;5.484;2023-02-27T09:28:51;1.60;99.90
44069;DHT22;29738;51.234;5.484;2023-02-27T09:31:17;1.60;99.90
44069;DHT22;29738;51.234;5.484;2023-02-27T09:33:43;1.80;99.90
44069;DHT22;29738;51.234;5.484;2023-02-27T09:36:12;1.90;99.90
44069;DHT22;29738;51.234;5.484;2023-02-27T09:38:38;2.00;99.90
44069;DHT22;29738;51.234;5.484;2023-02-27T09:41:06;2.00;99.90
44069;DHT22;29738;51.234;5.484;2023-02-27T09:43:44;2.10;99.90
44069;DHT22;29738;51.234;5.484;2023-02-27T09:46:19;2.10;99.90
44069;DHT22;29738;51.234;5.484;2023-02-27T09:48:49;2.20;99.90
44069;DHT22;29738;51.234;5.484;2023-02-27T09:51:17;2.10;99.90
44069;DHT22;29738;51.234;5.484;2023-02-27T09:53:47;2.20;99.90
44069;DHT22;29738;51.234;5.484;2023-02-27T10:07:21;2.50;99.90
44069;DHT22;29738;51.234;5.484;2023-02-27T10:13:19;2.50;99.90
44069;DHT22;29738;51.234;5.484;2023-02-27T10:15:52;2.70;99.90
44069;DHT22;29738;51.234;5.484;2023-02-27T10:18:20;2.60;99.90
44069;DHT22;29738;51.234;5.484;2023-02-27T10:20:55;2.70;99.90
44069;DHT22;29738;51.234;5.484;2023-02-27T10:23:40;2.60;99.90
44069;DHT22;29738;51.234;5.484;2023-02-27T10:26:17;2.80;99.90
44069;DHT22;29738;51.234;5.484;2023-02-27T10:28:43;2.80;99.90
44069;DHT22;29738;51.234;5.484;2023-02-27T10:31:16;2.90;99.90
44069;DHT22;29738;51.234;5.484;2023-02-27T10:33:45;2.90;99.90
44069;DHT22;29738;51.234;5.484;2023-02-27T10:36:13;2.90;99.90
44069;DHT22;29738;51.234;5.484;2023-02-27T10:38:43;2.90;99.90
44069;DHT22;29738;51.234;5.484;2023-02-27T10:41:13;3.10;99.90
44069;DHT22;29738;51.234;5.484;2023-02-27T10:43:39;3.20;99.90
44069;DHT22;29738;51.234;5.484;2023-02-27T10:46:18;3.00;99.90
44069;DHT22;29738;51.234;5.484;2023-02-27T10:48:46;3.10;99.90
44069;DHT22;29738;51.234;5.484;2023-02-27T10:51:32;3.30;99.90
44069;DHT22;29738;51.234;5.484;2023-02-27T10:54:17;3.50;99.90
44069;DHT22;29738;51.234;5.484;2023-02-27T10:56:47;3.40;99.90
44069;DHT22;29738;51.234;5.484;2023-02-27T10:59:24;3.30;99.90
44069;DHT22;29738;51.234;5.484;2023-02-27T11:01:59;3.30;99.90
44069;DHT22;29738;51.234;5.484;2023-02-27T11:04:31;3.40;99.90
44069;DHT22;29738;51.234;5.484;2023-02-27T11:06:59;3.30;99.90
44069;DHT22;29738;51.234;5.484;2023-02-27T11:09:31;3.50;99.90
44069;DHT22;29738;51.234;5.484;2023-02-27T11:12:31;3.40;99.90
44069;DHT22;29738;51.234;5.484;2023-02-27T11:15:15;3.70;99.90
44069;DHT22;29738;51.234;5.484;2023-02-27T11:17:46;3.70;99.90
44069;DHT22;29738;51.234;5.484;2023-02-27T11:20:34;3.80;99.90
44069;DHT22;29738;51.234;5.484;2023-02-27T11:23:09;3.90;99.90
44069;DHT22;29738;51.234;5.484;2023-02-27T11:25:36;4.10;99.90
44069;DHT22;29738;51.234;5.484;2023-02-27T11:28:27;4.00;99.90
44069;DHT22;29738;51.234;5.484;2023-02-27T11:31:06;3.70;99.90
44069;DHT22;29738;51.234;5.484;2023-02-27T11:33:46;3.80;99.90
44069;DHT22;29738;51.234;5.484;2023-02-27T11:36:12;3.60;99.90
44069;DHT22;29738;51.234;5.484;2023-02-27T11:38:38;3.80;99.90
44069;DHT22;29738;51.234;5.484;2023-02-27T11:41:05;3.70;99.90
44069;DHT22;29738;51.234;5.484;2023-02-27T11:43:48;3.80;99.90
44069;DHT22;29738;51.234;5.484;2023-02-27T11:46:20;4.00;99.90
44069;DHT22;29738;51.234;5.484;2023-02-27T11:49:07;4.20;99.90
44069;DHT22;29738;51.234;5.484;2023-02-27T11:51:56;4.50;99.90
44069;DHT22;29738;51.234;5.484;2023-02-27T11:54:49;4.50;99.90
44069;DHT22;29738;51.234;5.484;2023-02-27T11:57:48;4.70;99.90
44069;DHT22;29738;51.234;5.484;2023-02-27T12:00:28;4.60;99.90
44069;DHT22;29738;51.234;5.484;2023-02-27T12:03:10;4.50;99.90
44069;DHT22;29738;51.234;5.484;2023-02-27T12:05:45;4.50;99.90
44069;DHT22;29738;51.234;5.484;2023-02-27T12:11:19;4.40;99.90
44069;DHT22;29738;51.234;5.484;2023-02-27T12:13:51;4.30;99.90
44069;DHT22;29738;51.234;5.484;2023-02-27T12:16:36;4.40;99.90
44069;DHT22;29738;51.234;5.484;2023-02-27T12:22:30;4.30;99.90
44069;DHT22;29738;51.234;5.484;2023-02-27T12:25:32;4.30;99.90
44069;DHT22;29738;51.234;5.484;2023-02-27T12:30:38;4.40;99.90
44069;DHT22;29738;51.234;5.484;2023-02-27T12:33:35;4.60;99.90
44069;DHT22;29738;51.234;5.484;2023-02-27T12:36:03;4.60;99.90
44069;DHT22;29738;51.234;5.484;2023-02-27T12:38:32;4.60;99.90
44069;DHT22;29738;51.234;5.484;2023-02-27T12:41:20;4.70;99.90
44069;DHT22;29738;51.234;5.484;2023-02-27T12:46:38;4.70;99.90
44069;DHT22;29738;51.234;5.484;2023-02-27T12:49:32;4.60;99.90
44069;DHT22;29738;51.234;5.484;2023-02-27T12:54:54;4.70;99.90
44069;DHT22;29738;51.234;5.484;2023-02-27T13:00:18;4.90;99.90
44069;DHT22;29738;51.234;5.484;2023-02-27T13:02:57;5.00;99.90
44069;DHT22;29738;51.234;5.484;2023-02-27T13:05:50;5.00;99.90
44069;DHT22;29738;51.234;5.484;2023-02-27T13:11:00;5.10;99.90
44069;DHT22;29738;51.234;5.484;2023-02-27T13:13:43;5.10;99.90
44069;DHT22;29738;51.234;5.484;2023-02-27T13:16:18;4.90;99.90
44069;DHT22;29738;51.234;5.484;2023-02-27T13:18:54;4.80;99.90
44069;DHT22;29738;51.234;5.484;2023-02-27T13:21:28;4.90;99.90
44069;DHT22;29738;51.234;5.484;2023-02-27T13:26:35;4.70;99.90
44069;DHT22;29738;51.234;5.484;2023-02-27T13:29:02;4.90;99.90
44069;DHT22;29738;51.234;5.484;2023-02-27T13:34:43;4.90;99.90
44069;DHT22;29738;51.234;5.484;2023-02-27T13:37:10;4.90;99.90
44069;DHT22;29738;51.234;5.484;2023-02-27T13:39:49;5.00;99.90
44069;DHT22;29738;51.234;5.484;2023-02-27T13:48:43;5.10;99.90
44069;DHT22;29738;51.234;5.484;2023-02-27T13:54:27;5.00;99.90
44069;DHT22;29738;51.234;5.484;2023-02-27T13:59:52;5.00;99.90
44069;DHT22;29738;51.234;5.484;2023-02-27T14:02:28;5.10;99.90
44069;DHT22;29738;51.234;5.484;2023-02-27T14:04:57;5.20;99.90
44069;DHT22;29738;51.234;5.484;2023-02-27T14:07:26;5.10;99.90
44069;DHT22;29738;51.234;5.484;2023-02-27T14:10:04;5.20;99.90
44069;DHT22;29738;51.234;5.484;2023-02-27T14:12:36;5.20;99.90
44069;DHT22;29738;51.234;5.484;2023-02-27T14:15:47;5.30;99.90
44069;DHT22;29738;51.234;5.484;2023-02-27T14:17:56;5.10;99.90
44069;DHT22;29738;51.234;5.484;2023-02-27T14:28:30;5.10;99.90
44069;DHT22;29738;51.234;5.484;2023-02-27T14:31:01;5.10;99.90
44069;DHT22;29738;51.234;5.484;2023-02-27T14:33:48;5.00;99.90
44069;DHT22;29738;51.234;5.484;2023-02-27T14:36:19;5.10;99.90
44069;DHT22;29738;51.234;5.484;2023-02-27T14:38:46;5.20;99.90
44069;DHT22;29738;51.234;5.484;2023-02-27T14:44:04;5.40;99.90
44069;DHT22;29738;51.234;5.484;2023-02-27T14:46:38;5.30;99.90
44069;DHT22;29738;51.234;5.484;2023-02-27T14:49:06;5.20;99.90
44069;DHT22;29738;51.234;5.484;2023-02-27T14:51:41;5.30;99.90
44069;DHT22;29738;51.234;5.484;2023-02-27T14:54:20;5.20;99.90
44069;DHT22;29738;51.234;5.484;2023-02-27T14:57:03;5.00;99.90
44069;DHT22;29738;51.234;5.484;2023-02-27T14:59:32;4.90;99.90
44069;DHT22;29738;51.234;5.484;2023-02-27T15:01:59;5.00;99.90
44069;DHT22;29738;51.234;5.484;2023-02-27T15:04:31;5.10;99.90
44069;DHT22;29738;51.234;5.484;2023-02-27T15:06:58;5.20;99.90
44069;DHT22;29738;51.234;5.484;2023-02-27T15:11:56;5.20;99.90
44069;DHT22;29738;51.234;5.484;2023-02-27T15:14:37;5.20;99.90
44069;DHT22;29738;51.234;5.484;2023-02-27T15:17:56;5.30;99.90
44069;DHT22;29738;51.234;5.484;2023-02-27T15:20:32;5.20;99.90
44069;DHT22;29738;51.234;5.484;2023-02-27T15:23:25;5.40;99.90
44069;DHT22;29738;51.234;5.484;2023-02-27T15:25:56;5.50;99.90
44069;DHT22;29738;51.234;5.484;2023-02-27T15:28:34;5.60;99.90
44069;DHT22;29738;51.234;5.484;2023-02-27T15:31:01;5.60;99.90
44069;DHT22;29738;51.234;5.484;2023-02-27T15:33:29;5.40;99.90
44069;DHT22;29738;51.234;5.484;2023-02-27T15:35:56;5.20;99.90
44069;DHT22;29738;51.234;5.484;2023-02-27T15:38:31;5.30;99.90
44069;DHT22;29738;51.234;5.484;2023-02-27T15:40:58;5.30;99.90
44069;DHT22;29738;51.234;5.484;2023-02-27T15:43:26;5.30;99.90
44069;DHT22;29738;51.234;5.484;2023-02-27T15:45:53;5.40;99.90
44069;DHT22;29738;51.234;5.484;2023-02-27T15:48:19;5.30;99.90
44069;DHT22;29738;51.234;5.484;2023-02-27T15:50:56;5.00;99.90
44069;DHT22;29738;51.234;5.484;2023-02-27T15:53:24;5.00;99.90
44069;DHT22;29738;51.234;5.484;2023-02-27T15:56:04;4.80;99.90
44069;DHT22;29738;51.234;5.484;2023-02-27T15:58:48;4.80;99.90
44069;DHT22;29738;51.234;5.484;2023-02-27T16:01:25;4.70;99.90
44069;DHT22;29738;51.234;5.484;2023-02-27T16:03:53;4.80;99.90
44069;DHT22;29738;51.234;5.484;2023-02-27T16:06:35;5.00;99.90
44069;DHT22;29738;51.234;5.484;2023-02-27T16:09:04;5.10;99.90
44069;DHT22;29738;51.234;5.484;2023-02-27T16:11:33;5.10;99.90
44069;DHT22;29738;51.234;5.484;2023-02-27T16:14:00;5.20;99.90
44069;DHT22;29738;51.234;5.484;2023-02-27T16:16:34;5.20;99.90
44069;DHT22;29738;51.234;5.484;2023-02-27T16:19:23;5.20;99.90
44069;DHT22;29738;51.234;5.484;2023-02-27T16:22:14;5.30;99.90
44069;DHT22;29738;51.234;5.484;2023-02-27T16:24:42;5.20;99.90
44069;DHT22;29738;51.234;5.484;2023-02-27T16:27:25;5.30;99.90
44069;DHT22;29738;51.234;5.484;2023-02-27T16:29:56;5.20;99.90
44069;DHT22;29738;51.234;5.484;2023-02-27T16:32:32;5.10;99.90
44069;DHT22;29738;51.234;5.484;2023-02-27T16:35:14;4.90;99.90
44069;DHT22;29738;51.234;5.484;2023-02-27T16:37:41;4.70;99.90
44069;DHT22;29738;51.234;5.484;2023-02-27T16:40:14;4.70;99.90
44069;DHT22;29738;51.234;5.484;2023-02-27T16:42:41;4.50;99.90
44069;DHT22;29738;51.234;5.484;2023-02-27T16:45:15;4.40;99.90
44069;DHT22;29738;51.234;5.484;2023-02-27T16:47:42;4.40;99.90
44069;DHT22;29738;51.234;5.484;2023-02-27T16:50:29;4.30;99.90
44069;DHT22;29738;51.234;5.484;2023-02-27T16:52:56;4.10;99.90
44069;DHT22;29738;51.234;5.484;2023-02-27T16:55:23;4.10;99.90
44069;DHT22;29738;51.234;5.484;2023-02-27T16:57:49;4.10;99.90
44069;DHT22;29738;51.234;5.484;2023-02-27T17:00:16;4.00;99.90
44069;DHT22;29738;51.234;5.484;2023-02-27T17:02:42;3.90;99.90
44069;DHT22;29738;51.234;5.484;2023-02-27T17:05:08;3.80;99.90
44069;DHT22;29738;51.234;5.484;2023-02-27T17:07:34;3.80;99.90
44069;DHT22;29738;51.234;5.484;2023-02-27T17:10:01;3.80;99.90
44069;DHT22;29738;51.234;5.484;2023-02-27T17:12:26;3.80;99.90
44069;DHT22;29738;51.234;5.484;2023-02-27T17:14:53;3.60;99.90
44069;DHT22;29738;51.234;5.484;2023-02-27T17:17:19;3.60;99.90
44069;DHT22;29738;51.234;5.484;2023-02-27T17:19:45;3.50;99.90
44069;DHT22;29738;51.234;5.484;2023-02-27T17:22:11;3.50;99.90
44069;DHT22;29738;51.234;5.484;2023-02-27T17:24:37;3.50;99.90
44069;DHT22;29738;51.234;5.484;2023-02-27T17:27:03;3.40;99.90
44069;DHT22;29738;51.234;5.484;2023-02-27T17:29:29;3.30;99.90
44069;DHT22;29738;51.234;5.484;2023-02-27T17:31:55;3.40;99.90
44069;DHT22;29738;51.234;5.484;2023-02-27T17:34:22;3.30;99.90
44069;DHT22;29738;51.234;5.484;2023-02-27T17:36:48;3.30;99.90
44069;DHT22;29738;51.234;5.484;2023-02-27T17:39:14;3.30;99.90
44069;DHT22;29738;51.234;5.484;2023-02-27T17:41:42;3.30;99.90
44069;DHT22;29738;51.234;5.484;2023-02-27T17:44:11;3.20;99.90
44069;DHT22;29738;51.234;5.484;2023-02-27T17:46:37;3.20;99.90
44069;DHT22;29738;51.234;5.484;2023-02-27T17:49:03;3.20;99.90
44069;DHT22;29738;51.234;5.484;2023-02-27T17:51:30;3.20;99.90
44069;DHT22;29738;51.234;5.484;2023-02-27T17:54:00;3.10;99.90
44069;DHT22;29738;51.234;5.484;2023-02-27T17:56:26;3.10;99.90
44069;DHT22;29738;51.234;5.484;2023-02-27T17:58:52;3.10;99.90
44069;DHT22;29738;51.234;5.484;2023-02-27T18:01:20;3.20;99.90
44069;DHT22;29738;51.234;5.484;2023-02-27T18:03:48;3.20;99.90
44069;DHT22;29738;51.234;5.484;2023-02-27T18:06:15;3.20;99.90
44069;DHT22;29738;51.234;5.484;2023-02-27T18:08:41;3.20;99.90
44069;DHT22;29738;51.234;5.484;2023-02-27T18:11:17;3.30;99.90
44069;DHT22;29738;51.234;5.484;2023-02-27T18:13:43;3.30;99.90
44069;DHT22;29738;51.234;5.484;2023-02-27T18:16:09;3.30;99.90
44069;DHT22;29738;51.234;5.484;2023-02-27T18:18:40;3.20;99.90
44069;DHT22;29738;51.234;5.484;2023-02-27T18:21:09;3.10;99.90